createdAt,value
2022-10-09T00:04:36.716Z,5.49
2022-10-09T00:09:38.887Z,5.44
2022-10-09T00:14:41.041Z,5.51
2022-10-09T00:19:44.217Z,5.38
2022-10-09T00:24:45.940Z,5.37
2022-10-09T00:29:48.165Z,5.34
2022-10-09T00:34:52.206Z,5.34
2022-10-09T00:39:54.260Z,5.42
2022-10-09T00:44:58.298Z,5.65
2022-10-09T00:50:05.192Z,5.75
2022-10-09T00:55:08.358Z,5.84
2022-10-09T01:00:13.447Z,5.73
2022-10-09T01:05:17.263Z,5.71
2022-10-09T01:10:28.246Z,5.81
2022-10-09T01:15:35.628Z,5.87
2022-10-09T01:20:46.834Z,5.92
2022-10-09T01:26:03.442Z,5.92
2022-10-09T01:31:07.924Z,6.10
2022-10-09T01:36:10.703Z,5.93
2022-10-09T01:41:12.828Z,5.86
2022-10-09T01:46:22.329Z,5.78
2022-10-09T01:51:28.860Z,5.74
2022-10-09T01:56:35.072Z,5.81
2022-10-09T02:01:40.002Z,5.65
2022-10-09T02:06:43.165Z,5.63
2022-10-09T02:11:51.580Z,5.43
2022-10-09T02:17:01.782Z,5.29
2022-10-09T02:22:10.497Z,5.15
2022-10-09T02:27:14.268Z,5.11
2022-10-09T02:32:17.959Z,5.10
2022-10-09T02:37:20.166Z,5.00
2022-10-09T02:42:21.839Z,4.94
2022-10-09T02:47:25.119Z,4.83
2022-10-09T02:52:27.283Z,4.76
2022-10-09T02:57:29.159Z,4.71
2022-10-09T03:02:32.388Z,4.59
2022-10-09T03:07:34.729Z,4.61
2022-10-09T03:12:36.795Z,4.51
2022-10-09T03:17:40.644Z,4.41
2022-10-09T03:22:42.753Z,4.43
2022-10-09T03:27:44.832Z,4.29
2022-10-09T03:32:48.359Z,4.21
2022-10-09T03:37:50.518Z,4.10
2022-10-09T03:42:52.459Z,4.04
2022-10-09T03:47:55.973Z,4.02
2022-10-09T03:52:58.008Z,4.12
2022-10-09T03:57:59.804Z,4.07
2022-10-09T04:03:03.459Z,4.17
2022-10-09T04:08:06.518Z,4.00
2022-10-09T04:13:08.184Z,3.92
2022-10-09T04:18:11.517Z,3.97
2022-10-09T04:23:13.654Z,4.01
2022-10-09T04:28:15.901Z,3.91
2022-10-09T04:33:19.450Z,3.91
2022-10-09T04:38:22.349Z,3.82
2022-10-09T04:43:24.048Z,3.94
2022-10-09T04:48:27.557Z,3.84
2022-10-09T04:53:29.640Z,3.64
2022-10-09T04:58:32.487Z,3.63
2022-10-09T05:03:35.977Z,3.37
2022-10-09T05:08:38.680Z,3.35
2022-10-09T05:13:42.296Z,3.14
2022-10-09T05:18:47.533Z,3.15
2022-10-09T05:23:49.458Z,3.20
2022-10-09T05:28:51.748Z,3.18
2022-10-09T05:33:56.188Z,3.16
2022-10-09T05:38:57.943Z,3.11
2022-10-09T05:44:01.754Z,3.13
2022-10-09T05:49:05.932Z,3.17
2022-10-09T05:54:07.628Z,3.22
2022-10-09T05:59:11.043Z,3.28
2022-10-09T06:04:16.462Z,3.41
2022-10-09T06:09:21.541Z,3.42
2022-10-09T06:14:23.750Z,3.61
2022-10-09T06:19:27.072Z,3.79
2022-10-09T06:24:29.696Z,3.90
2022-10-09T06:29:31.742Z,3.96
2022-10-09T06:34:35.293Z,4.09
2022-10-09T06:39:37.477Z,4.41
2022-10-09T06:44:39.602Z,4.60
2022-10-09T06:49:43.466Z,4.87
2022-10-09T06:54:45.505Z,5.26
2022-10-09T06:59:47.720Z,5.64
2022-10-09T07:04:51.213Z,5.93
2022-10-09T07:09:53.501Z,6.15
2022-10-09T07:14:55.130Z,6.43
2022-10-09T07:19:58.603Z,6.66
2022-10-09T07:25:00.567Z,6.93
2022-10-09T07:30:02.818Z,7.12
2022-10-09T07:35:07.456Z,7.34
2022-10-09T07:40:10.217Z,7.54
2022-10-09T07:45:12.086Z,7.73
2022-10-09T07:50:15.819Z,7.90
2022-10-09T07:55:18.071Z,8.06
2022-10-09T08:00:20.166Z,8.40
2022-10-09T08:05:23.479Z,8.67
2022-10-09T08:10:26.214Z,8.91
2022-10-09T08:15:28.672Z,9.11
2022-10-09T08:20:32.007Z,9.30
2022-10-09T08:25:34.727Z,9.51
2022-10-09T08:30:36.941Z,9.84
2022-10-09T08:35:40.363Z,10.07
2022-10-09T08:40:53.804Z,10.32
2022-10-09T08:46:01.067Z,10.62
2022-10-09T08:51:12.767Z,10.89
2022-10-09T08:56:15.772Z,11.08
2022-10-09T09:01:26.123Z,11.43
2022-10-09T09:06:38.967Z,11.56
2022-10-09T09:11:49.689Z,12.02
2022-10-09T09:17:09.222Z,12.49
2022-10-09T09:22:15.440Z,12.82
2022-10-09T09:27:23.537Z,13.22
2022-10-09T09:32:29.803Z,13.45
2022-10-09T09:37:34.088Z,13.79
2022-10-09T09:42:36.489Z,14.43
2022-10-09T09:47:43.956Z,17.31
2022-10-09T09:52:47.480Z,21.30
2022-10-09T09:57:49.563Z,22.02
2022-10-09T10:03:04.256Z,24.20
2022-10-09T10:08:27.795Z,23.29
2022-10-09T10:13:34.853Z,23.84
2022-10-09T10:18:40.175Z,26.28
2022-10-09T10:23:50.640Z,25.34
2022-10-09T10:29:00.399Z,24.45
2022-10-09T10:34:14.494Z,28.99
2022-10-09T10:39:27.308Z,27.29
2022-10-09T10:44:41.261Z,25.62
2022-10-09T10:49:43.432Z,26.74
2022-10-09T10:54:55.027Z,27.25
2022-10-09T11:00:01.626Z,24.04
2022-10-09T11:05:17.334Z,22.12
2022-10-09T11:10:28.089Z,19.13
2022-10-09T11:15:36.870Z,18.86
2022-10-09T11:20:54.207Z,18.62
2022-10-09T11:26:07.955Z,17.34
2022-10-09T11:31:13.566Z,16.65
2022-10-09T11:36:20.204Z,17.56
2022-10-09T11:41:24.146Z,18.26
2022-10-09T11:46:35.765Z,17.82
2022-10-09T11:51:48.286Z,17.95
2022-10-09T11:56:59.841Z,18.49
2022-10-09T12:02:21.773Z,17.72
2022-10-09T12:07:30.576Z,17.99
2022-10-09T12:12:34.913Z,18.56
2022-10-09T12:17:46.714Z,17.83
2022-10-09T12:23:21.285Z,17.39
2022-10-09T12:28:25.185Z,17.94
2022-10-09T12:33:34.342Z,18.04
2022-10-09T12:38:37.002Z,17.82
2022-10-09T12:43:45.141Z,17.49
2022-10-09T12:48:47.240Z,17.82
2022-10-09T12:53:50.856Z,18.01
2022-10-09T12:58:55.391Z,17.76
2022-10-09T13:03:59.478Z,17.87
2022-10-09T13:09:04.403Z,18.29
2022-10-09T13:14:23.099Z,18.26
2022-10-09T13:19:27.641Z,17.84
2022-10-09T13:24:29.743Z,17.53
2022-10-09T13:29:33.671Z,17.27
2022-10-09T13:34:35.614Z,17.23
2022-10-09T13:39:38.096Z,17.79
2022-10-09T13:44:41.881Z,17.09
2022-10-09T13:49:43.644Z,17.48
2022-10-09T13:54:45.663Z,17.60
2022-10-09T13:59:48.861Z,17.74
2022-10-09T14:04:50.644Z,17.45
2022-10-09T14:09:52.542Z,17.25
2022-10-09T14:14:55.889Z,17.57
2022-10-09T14:19:58.394Z,18.00
2022-10-09T14:25:00.611Z,17.91
2022-10-09T14:30:04.274Z,17.87
2022-10-09T14:35:06.830Z,17.53
2022-10-09T14:40:09.300Z,17.80
2022-10-09T14:45:12.574Z,17.24
2022-10-09T14:50:14.455Z,17.24
2022-10-09T14:55:16.289Z,17.25
2022-10-09T15:00:19.811Z,16.96
2022-10-09T15:05:21.793Z,16.54
2022-10-09T15:10:24.599Z,16.09
2022-10-09T15:15:32.519Z,15.86
2022-10-09T15:20:35.387Z,15.68
2022-10-09T15:25:37.123Z,15.70
2022-10-09T15:30:45.169Z,15.69
2022-10-09T15:35:47.191Z,15.61
2022-10-09T15:40:52.605Z,15.58
2022-10-09T15:46:03.943Z,15.43
2022-10-09T15:51:06.240Z,15.38
2022-10-09T15:56:09.586Z,15.15
2022-10-09T16:01:15.250Z,14.87
2022-10-09T16:06:20.705Z,14.52
2022-10-09T16:11:25.290Z,14.03
2022-10-09T16:16:30.244Z,13.46
2022-10-09T16:21:32.798Z,13.21
2022-10-09T16:26:34.493Z,12.95
2022-10-09T16:31:38.186Z,12.63
2022-10-09T16:36:39.909Z,12.47
2022-10-09T16:41:42.191Z,12.22
2022-10-09T16:46:45.369Z,11.98
2022-10-09T16:51:47.420Z,11.58
2022-10-09T16:56:49.235Z,11.28
2022-10-09T17:01:52.812Z,10.97
2022-10-09T17:06:54.459Z,10.85
2022-10-09T17:11:56.263Z,10.64
2022-10-09T17:16:59.766Z,10.44
2022-10-09T17:22:02.802Z,10.26
2022-10-09T17:27:04.809Z,10.12
2022-10-09T17:32:07.786Z,10.06
2022-10-09T17:37:09.587Z,9.95
2022-10-09T17:42:11.488Z,9.84
2022-10-09T17:47:15.075Z,9.79
2022-10-09T17:52:16.878Z,9.68
2022-10-09T17:57:18.990Z,9.65
2022-10-09T18:02:22.240Z,9.51
2022-10-09T18:07:24.714Z,9.41
2022-10-09T18:12:26.682Z,9.29
2022-10-09T18:17:30.032Z,9.22
2022-10-09T18:22:32.122Z,9.03
2022-10-09T18:27:34.383Z,8.94
2022-10-09T18:32:37.621Z,8.87
2022-10-09T18:37:39.808Z,8.71
2022-10-09T18:42:42.430Z,8.57
2022-10-09T18:47:46.243Z,8.47
2022-10-09T18:52:48.787Z,8.30
2022-10-09T18:57:51.267Z,8.25
2022-10-09T19:02:55.407Z,8.20
2022-10-09T19:07:57.866Z,8.15
2022-10-09T19:12:59.869Z,8.13
2022-10-09T19:18:03.887Z,8.16
2022-10-09T19:23:06.908Z,8.14
2022-10-09T19:28:09.045Z,8.10
2022-10-09T19:33:13.003Z,8.03
2022-10-09T19:38:15.527Z,7.91
2022-10-09T19:43:18.872Z,7.83
2022-10-09T19:48:21.852Z,7.87
2022-10-09T19:53:24.051Z,7.85
2022-10-09T19:58:25.853Z,7.91
2022-10-09T20:03:29.389Z,7.89
2022-10-09T20:08:32.032Z,7.97
2022-10-09T20:13:36.335Z,8.10
2022-10-09T20:18:40.929Z,8.20
2022-10-09T20:23:43.212Z,8.18
2022-10-09T20:28:46.596Z,8.10
2022-10-09T20:33:50.556Z,8.11
2022-10-09T20:38:54.761Z,8.17
2022-10-09T20:43:58.556Z,8.05
2022-10-09T20:49:02.639Z,7.90
2022-10-09T20:54:05.950Z,7.79
2022-10-09T20:59:07.897Z,7.75
2022-10-09T21:04:11.597Z,7.72
2022-10-09T21:09:14.274Z,7.67
2022-10-09T21:14:17.135Z,7.63
2022-10-09T21:19:20.821Z,7.58
2022-10-09T21:24:23.035Z,7.53
2022-10-09T21:29:25.053Z,7.49
2022-10-09T21:34:28.402Z,7.44
2022-10-09T21:39:30.978Z,7.37
2022-10-09T21:44:33.011Z,7.23
2022-10-09T21:49:36.322Z,7.15
2022-10-09T21:54:38.278Z,7.05
2022-10-09T21:59:40.604Z,6.94
2022-10-09T22:04:43.652Z,6.75
2022-10-09T22:09:45.358Z,6.57
2022-10-09T22:14:47.534Z,6.51
2022-10-09T22:19:50.937Z,6.31
2022-10-09T22:24:53.437Z,6.23
2022-10-09T22:29:55.414Z,6.08
2022-10-09T22:34:58.946Z,6.13
2022-10-09T22:40:01.153Z,6.13
2022-10-09T22:45:03.714Z,6.08
2022-10-09T22:50:08.269Z,5.97
2022-10-09T22:55:10.394Z,5.78
2022-10-09T23:00:13.841Z,5.85
2022-10-09T23:05:17.056Z,5.69
2022-10-09T23:10:19.471Z,5.53
2022-10-09T23:15:22.013Z,5.40
2022-10-09T23:20:25.575Z,5.36
2022-10-09T23:25:27.219Z,5.44
2022-10-09T23:30:30.488Z,5.38
2022-10-09T23:35:33.464Z,5.50
2022-10-09T23:40:35.648Z,5.39
2022-10-09T23:45:40.283Z,5.51
2022-10-09T23:50:43.648Z,5.48
2022-10-09T23:55:45.783Z,5.47
